createdAt,value
2023-01-22T00:10:00.936Z,88.3
2023-01-22T00:40:00.837Z,87.7
2023-01-22T01:10:00.696Z,87.76
2023-01-22T01:40:00.530Z,88.05
2023-01-22T02:10:00.394Z,88.17
2023-01-22T02:40:00.350Z,88.2
2023-01-22T03:10:00.299Z,88.33
2023-01-22T03:40:00.227Z,88.53
2023-01-22T04:10:00.098Z,89.03
2023-01-22T04:39:59.963Z,89.92
2023-01-22T05:09:59.894Z,90.35
2023-01-22T05:39:59.752Z,90.83
2023-01-22T06:09:59.580Z,91.1
2023-01-22T06:39:59.509Z,91.32
2023-01-22T07:09:59.374Z,91.35
2023-01-22T07:39:59.209Z,91.51
2023-01-22T08:09:59.117Z,91.86
2023-01-22T08:39:59.036Z,91.98
2023-01-22T09:09:58.939Z,92.39
2023-01-22T09:32:22.679Z,92.26
2023-01-22T09:39:58.871Z,92.26
2023-01-22T10:09:58.760Z,92.07
2023-01-22T10:39:58.641Z,92.06
2023-01-22T11:09:58.551Z,91.9
2023-01-22T11:39:58.479Z,91.77
2023-01-22T12:09:58.375Z,92.04
2023-01-22T12:39:58.301Z,91.87
2023-01-22T13:09:58.250Z,91.81
2023-01-22T13:39:58.132Z,92.28
2023-01-22T14:09:58.106Z,92.37
2023-01-22T14:39:57.970Z,92.47
2023-01-22T15:09:57.858Z,92.5
2023-01-22T15:39:57.807Z,92.56
2023-01-22T16:09:57.713Z,92.65
2023-01-22T16:39:57.671Z,92.44
2023-01-22T17:09:57.600Z,92.54
2023-01-22T17:39:57.476Z,92.76
2023-01-22T18:09:57.424Z,93.28
2023-01-22T19:09:57.166Z,93.45
2023-01-22T19:39:57.132Z,93.51
2023-01-22T20:09:57.013Z,93.63
2023-01-22T20:39:56.835Z,93.67
2023-01-22T21:09:56.748Z,93.86
2023-01-22T21:39:56.626Z,94.13
2023-01-22T22:09:56.551Z,94.31
2023-01-22T22:39:56.411Z,94.34
2023-01-22T23:09:56.359Z,94.36
2023-01-22T23:39:56.273Z,94.19
